Time;durP1;ratioP1;P1;durP2;ratioP2;P2;SDS_P1;SDS_P2;PMS_P1;PMS_P2;Temp;Humidity;BMP_temperature;BMP_pressure;BME280_temperature;BME280_humidity;BME280_pressure;Samples;Min_cycle;Max_cycle;Signal;HPM_P1;HPM_P2
2021/03/20 00:02:20;;;;;;;5.90;5.40;;;0.40;99.90;;;;;;5027637;28;20179;-79
2021/03/20 00:04:46;;;;;;;5.07;4.67;;;0.50;99.90;;;;;;5027941;28;20575;-77
2021/03/20 00:07:12;;;;;;;5.50;4.83;;;0.50;99.90;;;;;;5027730;28;20258;-80
2021/03/20 00:09:37;;;;;;;5.03;4.60;;;0.40;99.90;;;;;;5014803;28;20701;-80
2021/03/20 00:12:04;;;;;;;4.97;4.53;;;0.50;99.90;;;;;;5028675;28;20233;-78
2021/03/20 00:14:30;;;;;;;5.17;4.77;;;0.40;99.90;;;;;;5027949;28;20691;-78
2021/03/20 00:16:55;;;;;;;5.33;4.83;;;0.40;99.90;;;;;;5026961;28;20504;-79
2021/03/20 00:19:21;;;;;;;5.97;4.63;;;0.30;99.90;;;;;;5028445;28;20442;-77
2021/03/20 00:21:47;;;;;;;4.90;4.50;;;0.30;99.90;;;;;;5029500;28;20187;-80
2021/03/20 00:24:12;;;;;;;5.70;5.20;;;0.40;99.90;;;;;;5027724;28;20260;-78
2021/03/20 00:26:39;;;;;;;5.70;5.00;;;0.40;99.90;;;;;;5027666;28;20214;-79
2021/03/20 00:29:05;;;;;;;5.27;4.77;;;0.40;99.90;;;;;;5027161;28;20262;-76
2021/03/20 00:31:32;;;;;;;5.97;5.37;;;0.40;99.90;;;;;;5022733;28;20457;-80
2021/03/20 00:33:57;;;;;;;5.83;5.13;;;0.40;99.90;;;;;;5027615;28;20458;-80
2021/03/20 00:36:23;;;;;;;5.70;5.20;;;0.40;99.90;;;;;;5019500;28;20539;-80
2021/03/20 00:38:49;;;;;;;6.33;5.70;;;0.30;99.90;;;;;;5026869;28;20206;-79
2021/03/20 00:41:15;;;;;;;6.77;6.07;;;0.30;99.90;;;;;;5027137;28;20187;-80
2021/03/20 00:43:41;;;;;;;6.30;5.70;;;0.40;99.90;;;;;;5022902;28;20199;-78
2021/03/20 00:46:08;;;;;;;6.63;5.90;;;0.40;99.90;;;;;;5027833;28;20961;-80
2021/03/20 00:48:37;;;;;;;7.70;5.90;;;0.40;99.90;;;;;;5010002;28;20849;-78
2021/03/20 00:51:03;;;;;;;13.03;9.40;;;0.30;99.90;;;;;;5026910;28;21678;-79
2021/03/20 00:53:29;;;;;;;7.73;7.03;;;0.30;99.90;;;;;;5027216;28;20803;-77
2021/03/20 00:55:55;;;;;;;6.93;6.00;;;0.30;99.90;;;;;;5027386;28;20437;-78
2021/03/20 00:58:21;;;;;;;6.07;5.47;;;0.30;99.90;;;;;;5026826;28;20461;-80
2021/03/20 01:00:47;;;;;;;7.27;5.90;;;0.30;99.90;;;;;;5025267;28;20430;-78
2021/03/20 01:03:13;;;;;;;7.20;6.50;;;0.30;99.90;;;;;;5023913;28;20232;-77
2021/03/20 01:05:39;;;;;;;6.97;6.30;;;0.40;99.90;;;;;;5027027;28;20525;-77
2021/03/20 01:08:05;;;;;;;6.23;5.63;;;0.40;99.90;;;;;;5026848;28;20191;-79
2021/03/20 01:10:31;;;;;;;6.57;5.97;;;0.40;99.90;;;;;;5025148;28;20600;-79
2021/03/20 01:12:56;;;;;;;7.70;6.90;;;0.40;99.90;;;;;;5026379;28;20438;-79
2021/03/20 01:15:22;;;;;;;6.50;5.93;;;0.40;99.90;;;;;;5026455;28;20282;-78
2021/03/20 01:17:47;;;;;;;6.10;5.60;;;0.30;99.90;;;;;;5026844;28;20289;-77
2021/03/20 01:20:14;;;;;;;9.60;6.63;;;0.30;99.90;;;;;;5027609;28;20179;-79
2021/03/20 01:22:40;;;;;;;6.00;5.40;;;0.30;99.90;;;;;;5024312;28;20203;-78
2021/03/20 01:25:08;;;;;;;6.13;5.60;;;0.20;99.90;;;;;;5036364;28;20458;-78
2021/03/20 01:27:34;;;;;;;5.80;5.20;;;0.10;99.90;;;;;;5045039;28;20183;-80
2021/03/20 01:30:00;;;;;;;6.67;6.10;;;0.10;99.90;;;;;;5048572;28;20438;-79
2021/03/20 01:32:26;;;;;;;6.43;5.83;;;0.10;99.90;;;;;;5028915;28;20442;-79
2021/03/20 01:34:51;;;;;;;5.93;5.30;;;0.20;99.90;;;;;;5020913;28;20221;-78
2021/03/20 01:37:17;;;;;;;6.43;5.83;;;0.30;99.90;;;;;;5027957;28;20470;-81
2021/03/20 01:39:43;;;;;;;5.70;4.90;;;0.30;99.90;;;;;;5018231;28;20182;-80
2021/03/20 01:42:09;;;;;;;5.47;4.97;;;0.30;99.90;;;;;;5029094;28;20612;-79
2021/03/20 01:44:36;;;;;;;8.63;5.60;;;0.40;99.90;;;;;;5043554;28;20232;-80
2021/03/20 01:47:09;;;;;;;6.00;5.33;;;0.60;99.90;;;;;;5041562;28;20425;-79
2021/03/20 01:49:42;;;;;;;5.87;5.40;;;0.70;99.90;;;;;;5051214;28;20505;-81
2021/03/20 01:52:31;;;;;;;5.20;4.77;;;0.80;99.90;;;;;;5041213;28;20796;-76
2021/03/20 01:55:09;;;;;;;6.30;4.40;;;0.70;99.90;;;;;;5031447;28;20452;-80
2021/03/20 01:57:40;;;;;;;5.63;4.90;;;0.50;99.90;;;;;;5030749;28;20453;-78
2021/03/20 02:00:13;;;;;;;6.83;5.90;;;0.60;99.90;;;;;;5030398;28;20413;-78
2021/03/20 02:02:39;;;;;;;4.90;4.40;;;0.50;99.90;;;;;;5028246;28;20457;-78
2021/03/20 02:05:05;;;;;;;6.00;5.40;;;0.50;99.90;;;;;;5024410;28;20438;-77
2021/03/20 02:07:31;;;;;;;6.50;5.40;;;0.40;99.90;;;;;;5030081;28;20436;-76
2021/03/20 02:09:57;;;;;;;5.07;4.60;;;0.30;99.90;;;;;;5026574;28;20422;-78
2021/03/20 02:12:31;;;;;;;5.67;5.10;;;0.30;99.90;;;;;;5028465;28;20191;-78
2021/03/20 02:15:15;;;;;;;5.40;5.00;;;0.30;99.90;;;;;;5023535;28;20692;-78
2021/03/20 02:17:54;;;;;;;5.90;5.40;;;0.40;99.90;;;;;;5028821;28;20472;-79
2021/03/20 02:20:44;;;;;;;7.80;6.40;;;0.40;99.90;;;;;;5027278;28;21080;-79
2021/03/20 02:23:10;;;;;;;5.53;5.03;;;0.40;99.90;;;;;;5029596;28;20461;-79
2021/03/20 02:26:12;;;;;;;5.60;5.10;;;0.40;99.90;;;;;;5030452;28;20852;-79
2021/03/20 02:29:18;;;;;;;7.13;5.47;;;0.50;99.90;;;;;;5027691;28;20691;-78
2021/03/20 02:32:09;;;;;;;6.20;5.57;;;0.60;99.90;;;;;;5028735;28;20437;-77
2021/03/20 02:34:44;;;;;;;4.87;4.47;;;0.60;99.90;;;;;;5023982;28;21042;-78
2021/03/20 02:37:45;;;;;;;4.87;4.37;;;0.50;99.90;;;;;;5029696;28;20882;-75
2021/03/20 02:40:41;;;;;;;5.20;4.70;;;0.50;99.90;;;;;;5025423;28;20467;-77
2021/03/20 02:43:21;;;;;;;5.67;4.40;;;0.40;99.90;;;;;;4988352;28;20517;-77
2021/03/20 02:46:06;;;;;;;5.97;5.10;;;0.30;99.90;;;;;;5028979;28;20991;-77
2021/03/20 02:49:00;;;;;;;5.40;4.93;;;0.20;99.90;;;;;;5028264;28;21315;-79
2021/03/20 02:51:58;;;;;;;5.10;4.70;;;0.30;99.90;;;;;;5028114;28;20434;-78
2021/03/20 02:54:46;;;;;;;4.60;4.20;;;0.20;99.90;;;;;;5025224;28;20442;-78
2021/03/20 02:57:21;;;;;;;4.80;4.40;;;0.20;99.90;;;;;;5026661;28;20477;-77
2021/03/20 02:59:59;;;;;;;5.83;5.33;;;0.20;99.90;;;;;;5028852;28;20460;-77
2021/03/20 03:02:28;;;;;;;5.70;5.20;;;0.20;99.90;;;;;;5026475;28;20528;-79
2021/03/20 03:05:04;;;;;;;4.77;4.23;;;0.30;99.90;;;;;;5028477;28;20446;-79
2021/03/20 03:07:41;;;;;;;5.53;4.47;;;0.30;99.90;;;;;;5013506;28;20449;-78
2021/03/20 03:10:13;;;;;;;4.87;4.43;;;0.40;99.90;;;;;;5029125;28;20499;-79
2021/03/20 03:12:49;;;;;;;5.10;4.60;;;0.40;99.90;;;;;;5012845;28;20953;-79
2021/03/20 03:15:20;;;;;;;4.97;4.50;;;0.30;99.90;;;;;;5024374;28;20823;-81
2021/03/20 03:17:50;;;;;;;5.90;5.30;;;0.30;99.90;;;;;;5030114;28;20461;-80
2021/03/20 03:20:25;;;;;;;4.67;4.27;;;0.40;99.90;;;;;;5029946;28;20482;-80
2021/03/20 03:23:01;;;;;;;5.97;5.27;;;0.30;99.90;;;;;;5027721;28;20468;-78
2021/03/20 03:25:29;;;;;;;5.57;4.60;;;0.30;99.90;;;;;;5019390;28;20453;-79
2021/03/20 03:27:58;;;;;;;5.13;4.63;;;0.20;99.90;;;;;;5027252;28;20438;-78
2021/03/20 03:30:26;;;;;;;4.70;4.03;;;0.20;99.90;;;;;;5028736;28;20464;-79
2021/03/20 03:33:09;;;;;;;5.10;4.60;;;0.30;99.90;;;;;;5027865;28;20464;-78
2021/03/20 03:35:38;;;;;;;5.30;4.30;;;0.30;99.90;;;;;;5020533;28;20438;-79
2021/03/20 03:38:12;;;;;;;6.33;5.70;;;0.30;99.90;;;;;;5017134;28;20458;-80
2021/03/20 03:40:49;;;;;;;4.47;4.10;;;0.40;99.90;;;;;;5014863;28;20425;-78
2021/03/20 03:43:18;;;;;;;4.20;3.80;;;0.30;99.90;;;;;;5028042;28;20433;-80
2021/03/20 03:45:44;;;;;;;5.83;4.23;;;0.40;99.90;;;;;;5019374;28;20952;-79
2021/03/20 03:48:10;;;;;;;5.63;5.10;;;0.30;99.90;;;;;;5022249;28;20993;-78
2021/03/20 03:50:39;;;;;;;5.20;4.33;;;0.30;99.90;;;;;;5028741;28;20433;-78
2021/03/20 03:53:07;;;;;;;5.10;4.60;;;0.20;99.90;;;;;;5027905;28;20434;-76
2021/03/20 03:55:34;;;;;;;4.43;4.10;;;0.20;99.90;;;;;;5019009;28;20434;-77
2021/03/20 03:58:24;;;;;;;5.07;4.50;;;0.20;99.90;;;;;;5027773;28;20890;-79
2021/03/20 04:00:57;;;;;;;6.00;4.70;;;0.00;99.90;;;;;;5027347;28;20430;-79
2021/03/20 04:03:40;;;;;;;7.47;6.53;;;-0.10;99.90;;;;;;5020517;28;20448;-80
2021/03/20 04:06:05;;;;;;;5.43;4.87;;;-0.10;99.90;;;;;;5028668;28;21007;-78
2021/03/20 04:08:51;;;;;;;5.57;4.90;;;-0.10;99.90;;;;;;5030299;28;20479;-79
2021/03/20 04:11:34;;;;;;;4.60;4.20;;;-0.20;99.90;;;;;;5018784;28;20241;-79
2021/03/20 04:14:07;;;;;;;6.23;4.80;;;-0.30;99.90;;;;;;5023677;28;20460;-80
2021/03/20 04:16:46;;;;;;;5.47;4.97;;;-0.30;99.90;;;;;;5026553;28;20428;-79
2021/03/20 04:19:29;;;;;;;6.00;4.83;;;-0.30;99.90;;;;;;5029567;28;20461;-80
2021/03/20 04:22:06;;;;;;;5.20;4.70;;;-0.30;99.90;;;;;;5021859;28;20788;-78
2021/03/20 04:24:50;;;;;;;6.40;3.80;;;-0.30;99.90;;;;;;5028719;28;20540;-78
2021/03/20 04:27:18;;;;;;;5.47;4.97;;;-0.30;99.90;;;;;;5025887;28;20527;-79
2021/03/20 04:29:52;;;;;;;5.70;5.17;;;-0.20;99.90;;;;;;5025282;28;20461;-79
2021/03/20 04:32:24;;;;;;;5.27;4.13;;;0.00;99.90;;;;;;5018255;28;20803;-76
2021/03/20 04:35:02;;;;;;;4.67;4.23;;;0.00;99.90;;;;;;5028319;28;20449;-79
2021/03/20 04:37:32;;;;;;;5.00;4.30;;;0.00;99.90;;;;;;5036627;28;20469;-79
2021/03/20 04:39:59;;;;;;;4.60;3.90;;;0.00;99.90;;;;;;5012858;28;20430;-80
2021/03/20 04:42:29;;;;;;;5.23;4.50;;;0.10;99.90;;;;;;5009716;28;20513;-79
2021/03/20 04:44:59;;;;;;;4.20;3.77;;;0.10;99.90;;;;;;5021929;28;20456;-79
2021/03/20 04:47:27;;;;;;;5.20;4.33;;;0.10;99.90;;;;;;5026558;28;20453;-76
2021/03/20 04:49:58;;;;;;;5.27;4.20;;;0.10;99.90;;;;;;5026956;28;20426;-79
2021/03/20 04:52:50;;;;;;;5.90;3.80;;;0.10;99.90;;;;;;5022021;28;20844;-79
2021/03/20 04:55:17;;;;;;;7.80;4.33;;;0.10;99.90;;;;;;5021428;28;20862;-79
2021/03/20 04:57:53;;;;;;;4.03;3.63;;;0.10;99.90;;;;;;5011517;28;20462;-78
2021/03/20 05:00:24;;;;;;;4.17;3.67;;;0.00;99.90;;;;;;5005470;28;20559;-79
2021/03/20 05:03:17;;;;;;;5.00;3.97;;;0.00;99.90;;;;;;5005271;28;20435;-77
2021/03/20 05:05:50;;;;;;;3.83;3.53;;;0.10;99.90;;;;;;5029446;28;20426;-79
2021/03/20 05:08:36;;;;;;;4.73;4.07;;;0.10;99.90;;;;;;5029025;28;20806;-79
2021/03/20 05:11:13;;;;;;;4.00;3.50;;;0.00;99.90;;;;;;5027962;28;20449;-77
2021/03/20 05:13:58;;;;;;;3.57;3.20;;;-0.10;99.90;;;;;;5018189;28;20453;-75
2021/03/20 05:16:31;;;;;;;4.50;4.10;;;0.00;99.90;;;;;;5023114;28;20464;-78
2021/03/20 05:18:56;;;;;;;3.70;3.30;;;0.00;99.90;;;;;;5026277;28;20473;-77
2021/03/20 05:21:28;;;;;;;3.77;3.37;;;0.00;99.90;;;;;;5027110;28;20940;-79
2021/03/20 05:23:55;;;;;;;3.60;2.80;;;0.00;99.90;;;;;;5033355;28;20249;-80
2021/03/20 05:26:21;;;;;;;4.97;4.00;;;0.00;99.90;;;;;;5015875;28;20475;-81
2021/03/20 05:28:47;;;;;;;3.30;2.40;;;0.00;99.90;;;;;;5019780;28;20437;-81
2021/03/20 05:31:12;;;;;;;3.07;2.40;;;-0.10;99.90;;;;;;5039818;28;20891;-79
2021/03/20 05:33:40;;;;;;;5.00;2.73;;;-0.10;99.90;;;;;;5031975;28;20259;-81
2021/03/20 05:36:06;;;;;;;3.50;2.67;;;0.00;99.90;;;;;;5039985;28;20190;-79
2021/03/20 05:38:33;;;;;;;2.50;2.30;;;-0.10;99.90;;;;;;5027861;28;20879;-83
2021/03/20 05:41:05;;;;;;;3.30;2.77;;;-0.20;99.90;;;;;;5013002;28;20501;-81
2021/03/20 05:43:59;;;;;;;4.50;2.30;;;-0.20;99.90;;;;;;5012803;28;20442;-80
2021/03/20 05:46:52;;;;;;;2.50;2.30;;;-0.20;99.90;;;;;;5018599;28;20461;-81
2021/03/20 05:49:44;;;;;;;6.20;2.20;;;-0.10;99.90;;;;;;5026633;28;20457;-80
2021/03/20 05:52:32;;;;;;;4.80;2.77;;;-0.20;99.90;;;;;;4987078;28;20468;-81
2021/03/20 05:55:05;;;;;;;2.77;2.57;;;-0.20;99.90;;;;;;5007477;28;20439;-80
2021/03/20 05:58:09;;;;;;;2.50;2.30;;;-0.20;99.90;;;;;;5025295;28;20565;-78
2021/03/20 06:01:13;;;;;;;3.20;2.27;;;-0.20;99.90;;;;;;4935284;28;20437;-79
2021/03/20 06:03:53;;;;;;;3.97;2.70;;;-0.10;99.90;;;;;;4947615;28;20535;-76
2021/03/20 06:06:35;;;;;;;6.10;2.30;;;0.00;99.90;;;;;;4954833;28;20460;-78
2021/03/20 06:09:15;;;;;;;2.90;2.70;;;0.00;99.90;;;;;;4964991;28;20444;-81
2021/03/20 06:12:05;;;;;;;3.10;2.80;;;0.10;99.90;;;;;;4954492;28;20564;-78
2021/03/20 06:15:06;;;;;;;2.83;2.63;;;0.10;99.90;;;;;;4953568;28;20989;-82
2021/03/20 06:17:41;;;;;;;4.47;2.43;;;0.20;99.90;;;;;;4932717;28;20479;-78
2021/03/20 06:20:30;;;;;;;2.83;2.40;;;0.20;99.90;;;;;;4962699;28;20438;-82
2021/03/20 06:23:07;;;;;;;2.93;2.67;;;0.30;99.90;;;;;;4952992;28;20433;-80
2021/03/20 06:25:57;;;;;;;3.40;2.80;;;0.30;99.90;;;;;;4957001;28;20521;-80
2021/03/20 06:28:53;;;;;;;4.10;2.97;;;0.40;99.90;;;;;;4931147;29;20465;-80
2021/03/20 06:31:42;;;;;;;3.53;2.07;;;0.40;99.90;;;;;;4955580;28;20510;-82
2021/03/20 06:34:27;;;;;;;2.60;2.40;;;0.50;99.90;;;;;;4956883;28;20495;-80
2021/03/20 06:37:28;;;;;;;2.37;2.17;;;0.50;99.90;;;;;;4975029;28;20426;-82
2021/03/20 06:40:19;;;;;;;2.40;2.00;;;0.70;99.90;;;;;;5030175;28;20438;-82
2021/03/20 06:42:45;;;;;;;3.30;2.60;;;0.80;99.90;;;;;;5024775;28;20460;-80
2021/03/20 06:45:16;;;;;;;3.60;3.20;;;0.90;99.90;;;;;;5033448;28;20951;-79
2021/03/20 06:47:46;;;;;;;2.63;1.97;;;0.90;99.90;;;;;;5019471;28;20505;-80
2021/03/20 06:50:20;;;;;;;1.80;1.40;;;0.90;99.90;;;;;;5019031;28;20425;-79
2021/03/20 06:52:57;;;;;;;2.73;2.23;;;1.00;99.90;;;;;;5036309;28;20445;-82
2021/03/20 06:55:33;;;;;;;2.20;1.70;;;1.00;99.90;;;;;;5018090;28;20477;-81
2021/03/20 06:58:26;;;;;;;2.70;1.70;;;0.90;99.90;;;;;;5009973;28;20525;-82
2021/03/20 07:00:52;;;;;;;2.87;1.73;;;1.00;99.90;;;;;;5020297;28;20493;-82
2021/03/20 07:03:36;;;;;;;2.27;2.07;;;1.00;99.90;;;;;;5025205;28;20432;-82
2021/03/20 07:06:09;;;;;;;2.90;1.97;;;1.10;99.90;;;;;;5005765;28;20413;-81
2021/03/20 07:09:03;;;;;;;1.80;1.70;;;1.10;99.90;;;;;;5023573;28;20429;-81
2021/03/20 07:11:42;;;;;;;2.90;1.63;;;1.00;99.90;;;;;;5034619;28;20440;-81
2021/03/20 07:14:33;;;;;;;2.33;1.70;;;1.00;99.90;;;;;;5054485;28;20507;-80
2021/03/20 07:17:01;;;;;;;2.07;1.97;;;1.10;99.90;;;;;;5040906;28;20443;-82
2021/03/20 07:19:27;;;;;;;1.80;1.70;;;1.20;99.90;;;;;;5042376;28;20414;-82
2021/03/20 07:22:24;;;;;;;2.67;2.27;;;1.30;99.90;;;;;;5035673;28;20412;-79
2021/03/20 07:24:49;;;;;;;2.60;1.80;;;1.50;99.90;;;;;;5018644;28;20508;-82
2021/03/20 07:27:15;;;;;;;2.33;1.37;;;1.50;99.90;;;;;;5023242;28;20426;-81
2021/03/20 07:29:51;;;;;;;3.47;2.07;;;1.50;99.90;;;;;;5019146;28;20574;-82
2021/03/20 07:32:36;;;;;;;1.90;1.70;;;1.50;99.90;;;;;;5047044;28;20198;-81
2021/03/20 07:35:20;;;;;;;2.20;2.00;;;1.50;99.90;;;;;;5047807;28;20599;-81
2021/03/20 07:37:51;;;;;;;3.30;2.00;;;1.50;99.90;;;;;;5040790;28;20458;-81
2021/03/20 07:40:32;;;;;;;2.50;2.07;;;1.50;99.90;;;;;;5049793;28;20797;-79
2021/03/20 07:43:17;;;;;;;2.17;1.97;;;1.50;99.90;;;;;;5027664;28;20426;-81
2021/03/20 07:45:44;;;;;;;2.00;1.73;;;1.60;99.90;;;;;;5034686;28;20414;-79
2021/03/20 07:48:24;;;;;;;2.13;1.67;;;1.80;99.90;;;;;;5033896;28;20436;-81
2021/03/20 07:51:03;;;;;;;2.20;1.83;;;1.80;99.90;;;;;;5025966;28;20495;-81
2021/03/20 07:53:30;;;;;;;4.90;2.50;;;1.90;99.90;;;;;;5032721;28;20944;-80
2021/03/20 07:56:18;;;;;;;2.23;2.00;;;1.90;99.90;;;;;;5020911;28;20425;-82
2021/03/20 07:58:50;;;;;;;1.97;1.50;;;2.00;99.90;;;;;;5011407;28;20470;-80
2021/03/20 08:01:18;;;;;;;1.50;1.27;;;2.10;99.90;;;;;;5033816;28;20398;-81
2021/03/20 08:03:50;;;;;;;4.67;3.63;;;2.10;99.90;;;;;;5034794;28;20823;-81
2021/03/20 08:06:27;;;;;;;2.13;1.60;;;2.10;99.90;;;;;;5026976;28;20410;-82
2021/03/20 08:09:20;;;;;;;2.70;2.33;;;2.10;99.90;;;;;;5038131;28;20415;-81
2021/03/20 08:11:49;;;;;;;2.17;1.97;;;2.10;99.90;;;;;;5034212;28;20485;-82
2021/03/20 08:14:25;;;;;;;2.73;2.17;;;2.20;99.90;;;;;;5036299;28;20468;-80
2021/03/20 08:16:51;;;;;;;1.50;1.40;;;2.00;99.90;;;;;;5026177;28;20754;-80
2021/03/20 08:19:18;;;;;;;2.07;1.67;;;2.10;99.90;;;;;;5031789;28;20476;-80
2021/03/20 08:21:56;;;;;;;2.10;1.63;;;2.20;99.90;;;;;;5033121;28;20453;-82
2021/03/20 08:24:49;;;;;;;3.60;1.90;;;2.50;99.90;;;;;;5034046;28;20437;-79
2021/03/20 08:27:33;;;;;;;4.33;1.80;;;2.50;99.90;;;;;;5029882;28;20414;-80
2021/03/20 08:30:01;;;;;;;2.00;1.60;;;2.70;99.90;;;;;;5031750;28;20457;-83
2021/03/20 08:32:37;;;;;;;1.30;1.20;;;2.80;99.90;;;;;;5018700;28;20426;-80
2021/03/20 08:35:14;;;;;;;1.60;1.40;;;2.90;99.90;;;;;;5024004;28;20984;-80
2021/03/20 08:37:58;;;;;;;1.87;1.23;;;3.00;99.50;;;;;;5030620;28;20560;-82
2021/03/20 08:40:42;;;;;;;2.70;1.70;;;3.00;97.90;;;;;;5023843;28;20414;-80
2021/03/20 08:43:45;;;;;;;2.07;1.10;;;3.10;97.20;;;;;;5033596;28;20914;-81
2021/03/20 08:46:41;;;;;;;1.37;1.10;;;3.20;95.10;;;;;;5035325;28;20914;-82
2021/03/20 08:49:29;;;;;;;1.40;1.30;;;3.10;94.70;;;;;;5029235;28;20898;-81
2021/03/20 08:52:00;;;;;;;2.17;1.97;;;3.20;94.00;;;;;;5028164;28;20508;-82
2021/03/20 08:54:48;;;;;;;2.27;1.30;;;3.30;94.00;;;;;;5028169;28;20446;-82
2021/03/20 08:57:46;;;;;;;2.20;1.70;;;3.30;92.80;;;;;;5016829;28;20948;-81
2021/03/20 09:00:47;;;;;;;2.00;1.20;;;3.40;92.60;;;;;;5028696;28;20417;-80
2021/03/20 09:03:16;;;;;;;3.00;1.23;;;3.60;92.30;;;;;;5029380;28;20429;-82
2021/03/20 09:05:48;;;;;;;1.40;1.20;;;3.60;92.20;;;;;;5041670;28;20417;-80
2021/03/20 09:08:28;;;;;;;1.47;1.20;;;3.50;91.80;;;;;;5033437;28;20509;-80
2021/03/20 09:11:30;;;;;;;2.77;2.37;;;3.50;93.20;;;;;;5013076;28;20467;-82
2021/03/20 09:14:05;;;;;;;1.53;1.37;;;3.80;93.40;;;;;;5020989;28;20850;-81
2021/03/20 09:16:42;;;;;;;1.50;1.30;;;3.90;93.00;;;;;;5015078;28;20402;-80
2021/03/20 09:19:18;;;;;;;3.03;1.60;;;4.10;92.30;;;;;;5032072;28;20449;-81
2021/03/20 09:21:44;;;;;;;1.53;1.23;;;4.10;91.40;;;;;;5023335;28;20483;-80
2021/03/20 09:24:21;;;;;;;1.13;0.97;;;4.10;90.20;;;;;;5015923;28;20961;-80
2021/03/20 09:26:52;;;;;;;3.80;1.30;;;4.00;88.90;;;;;;5015329;28;20484;-80
2021/03/20 09:29:30;;;;;;;1.10;1.00;;;4.20;87.70;;;;;;5033755;28;20430;-81
2021/03/20 09:32:14;;;;;;;1.30;1.00;;;4.20;87.10;;;;;;5034809;28;20780;-80
2021/03/20 09:34:44;;;;;;;1.30;1.20;;;4.30;87.60;;;;;;5022706;28;20980;-82
2021/03/20 09:37:30;;;;;;;1.20;1.10;;;4.40;84.60;;;;;;5033985;28;20442;-81
2021/03/20 09:39:57;;;;;;;0.80;0.80;;;4.40;81.10;;;;;;5007345;28;20922;-80
2021/03/20 09:42:26;;;;;;;0.80;0.80;;;4.40;81.60;;;;;;5015743;28;20902;-80
2021/03/20 09:45:23;;;;;;;1.20;0.73;;;4.50;75.30;;;;;;5033150;28;20436;-81
2021/03/20 09:47:52;;;;;;;0.90;0.80;;;4.50;72.90;;;;;;5033929;28;20496;-82
2021/03/20 09:50:29;;;;;;;1.20;1.10;;;4.40;75.60;;;;;;5034065;28;20489;-82
2021/03/20 09:53:03;;;;;;;1.30;1.20;;;4.40;74.70;;;;;;5015468;28;20932;-82
2021/03/20 09:55:28;;;;;;;1.93;1.00;;;4.30;72.80;;;;;;5033354;28;20446;-80
2021/03/20 09:57:54;;;;;;;1.00;0.87;;;4.20;73.20;;;;;;5022178;28;21070;-81
2021/03/20 10:00:47;;;;;;;1.10;1.00;;;4.20;73.80;;;;;;5019161;28;20620;-82
2021/03/20 10:03:41;;;;;;;1.40;1.30;;;4.30;75.70;;;;;;5033203;28;20425;-81
2021/03/20 10:06:16;;;;;;;2.17;0.80;;;4.10;72.10;;;;;;5037190;28;20429;-82
2021/03/20 10:08:44;;;;;;;1.47;1.00;;;4.00;72.90;;;;;;5037259;28;20405;-82
2021/03/20 10:11:36;;;;;;;2.90;0.97;;;4.10;69.60;;;;;;5020103;28;20442;-82
2021/03/20 10:14:22;;;;;;;1.10;1.00;;;3.90;69.30;;;;;;5036997;28;20541;-82
2021/03/20 10:17:13;;;;;;;1.10;1.00;;;3.80;70.10;;;;;;5020685;28;20778;-80
2021/03/20 10:20:12;;;;;;;0.97;0.93;;;3.80;69.00;;;;;;5014774;28;20402;-82
2021/03/20 10:22:59;;;;;;;2.63;1.70;;;3.70;69.30;;;;;;5054544;28;20386;-82
2021/03/20 10:25:25;;;;;;;1.50;0.90;;;3.60;68.10;;;;;;5043976;28;20446;-82
2021/03/20 10:27:59;;;;;;;1.40;1.10;;;3.70;69.80;;;;;;5030106;28;20418;-81
2021/03/20 10:30:29;;;;;;;1.40;1.30;;;3.70;69.60;;;;;;5035539;28;20460;-78
2021/03/20 10:32:59;;;;;;;1.60;1.50;;;3.70;70.60;;;;;;5038007;28;20414;-80
2021/03/20 10:35:26;;;;;;;1.20;1.10;;;3.80;71.60;;;;;;5053255;28;20450;-80
2021/03/20 10:37:52;;;;;;;1.23;0.90;;;3.70;72.40;;;;;;5040321;28;20528;-82
2021/03/20 10:40:26;;;;;;;1.80;1.03;;;3.70;72.10;;;;;;5031722;28;20460;-80
2021/03/20 10:42:58;;;;;;;1.33;1.23;;;3.70;71.20;;;;;;5009561;28;20182;-80
2021/03/20 10:45:39;;;;;;;1.57;1.47;;;3.90;73.00;;;;;;5024287;28;20508;-80
2021/03/20 10:48:25;;;;;;;1.93;1.30;;;4.20;69.50;;;;;;5017905;28;20515;-81
2021/03/20 10:50:59;;;;;;;1.37;0.97;;;4.10;65.90;;;;;;5028145;28;20425;-81
2021/03/20 10:53:27;;;;;;;1.20;0.93;;;4.10;68.40;;;;;;5024552;28;20422;-80
2021/03/20 10:55:55;;;;;;;1.10;0.80;;;4.10;65.50;;;;;;5031727;28;20422;-81
2021/03/20 10:58:40;;;;;;;0.83;0.80;;;4.00;67.00;;;;;;5029987;28;20462;-81
2021/03/20 11:01:08;;;;;;;1.13;1.00;;;4.20;68.40;;;;;;5026845;28;20740;-80
2021/03/20 11:03:37;;;;;;;1.93;1.20;;;4.20;65.50;;;;;;5035998;28;20466;-81
2021/03/20 11:06:15;;;;;;;1.10;1.00;;;4.20;65.40;;;;;;5035567;28;20433;-82
2021/03/20 11:08:42;;;;;;;1.70;1.20;;;4.10;63.40;;;;;;5044208;28;20422;-82
2021/03/20 11:11:17;;;;;;;1.20;1.10;;;4.00;65.60;;;;;;5021229;28;20426;-82
2021/03/20 11:13:46;;;;;;;1.27;1.13;;;4.10;65.50;;;;;;5039765;28;20511;-84
2021/03/20 11:16:20;;;;;;;1.27;1.03;;;4.30;65.00;;;;;;5036464;28;20425;-81
2021/03/20 11:18:50;;;;;;;1.80;1.07;;;4.30;66.00;;;;;;5034424;28;20466;-83
2021/03/20 11:21:38;;;;;;;1.27;1.00;;;4.40;65.20;;;;;;5025538;28;20426;-81
2021/03/20 11:24:16;;;;;;;1.10;1.00;;;4.50;63.70;;;;;;5019017;28;20481;-80
2021/03/20 11:26:47;;;;;;;1.47;1.10;;;4.50;63.50;;;;;;5028237;28;20424;-82
2021/03/20 11:29:19;;;;;;;1.90;1.23;;;4.60;64.80;;;;;;5047174;28;20446;-81
2021/03/20 11:31:56;;;;;;;1.60;0.93;;;4.60;64.60;;;;;;5029170;28;20453;-82
2021/03/20 11:34:35;;;;;;;1.10;1.00;;;4.60;65.50;;;;;;5036867;28;20533;-80
2021/03/20 11:37:02;;;;;;;2.57;1.27;;;4.80;65.00;;;;;;5037387;28;20486;-81
2021/03/20 11:39:28;;;;;;;3.07;1.50;;;5.00;64.60;;;;;;5037654;28;20429;-82
2021/03/20 11:41:59;;;;;;;2.90;1.03;;;5.00;61.80;;;;;;5036460;28;20414;-82
2021/03/20 11:44:28;;;;;;;0.90;0.90;;;4.80;62.80;;;;;;5039621;28;20995;-81
2021/03/20 11:46:57;;;;;;;1.67;1.10;;;4.90;64.40;;;;;;5038415;28;20436;-83
2021/03/20 11:49:33;;;;;;;1.93;1.20;;;5.20;64.00;;;;;;5020071;28;20433;-81
2021/03/20 11:51:59;;;;;;;1.40;1.03;;;5.50;64.10;;;;;;5035783;28;20406;-82
2021/03/20 11:54:37;;;;;;;1.87;1.30;;;5.70;61.60;;;;;;5023845;28;20440;-82
2021/03/20 11:57:21;;;;;;;1.43;1.33;;;5.70;60.20;;;;;;5036876;28;20418;-82
2021/03/20 11:59:47;;;;;;;1.30;1.20;;;5.80;61.30;;;;;;5025864;28;20418;-83
2021/03/20 12:02:37;;;;;;;1.83;1.30;;;6.40;61.20;;;;;;5029668;28;20429;-82
2021/03/20 12:05:12;;;;;;;1.60;1.10;;;7.00;59.10;;;;;;5011954;28;20472;-82
2021/03/20 12:07:38;;;;;;;1.67;1.20;;;7.40;60.70;;;;;;5041016;28;20422;-81
2021/03/20 12:10:16;;;;;;;2.90;1.70;;;7.90;59.40;;;;;;5038742;28;20833;-83
2021/03/20 12:12:52;;;;;;;1.23;1.13;;;8.00;58.50;;;;;;5026084;28;20518;-79
2021/03/20 12:15:36;;;;;;;1.73;1.30;;;8.20;58.70;;;;;;5027469;28;20515;-83
2021/03/20 12:18:18;;;;;;;2.53;1.40;;;8.50;58.10;;;;;;5022233;28;20449;-85
2021/03/20 12:20:44;;;;;;;2.97;1.67;;;8.40;56.90;;;;;;5038112;28;20930;-83
2021/03/20 12:23:14;;;;;;;1.40;1.27;;;8.30;57.10;;;;;;5038477;28;20448;-83
2021/03/20 12:25:45;;;;;;;3.03;1.73;;;8.60;57.70;;;;;;5019300;28;20183;-83
2021/03/20 12:28:39;;;;;;;1.97;1.23;;;8.80;55.80;;;;;;5018724;28;20426;-82
2021/03/20 12:31:19;;;;;;;1.77;1.50;;;9.10;56.60;;;;;;5037119;28;20426;-84
2021/03/20 12:33:46;;;;;;;4.27;1.80;;;9.50;56.30;;;;;;5019350;28;20448;-84
2021/03/20 12:36:17;;;;;;;1.90;1.37;;;9.80;54.60;;;;;;5030243;28;20418;-82
2021/03/20 12:38:42;;;;;;;1.90;1.70;;;9.60;54.00;;;;;;5038143;28;20480;-83
2021/03/20 12:41:17;;;;;;;1.70;1.60;;;10.00;54.30;;;;;;5015108;28;20434;-83
2021/03/20 12:43:42;;;;;;;2.17;1.47;;;10.70;54.10;;;;;;5041787;28;20201;-84
2021/03/20 12:46:10;;;;;;;2.17;1.93;;;10.50;50.70;;;;;;5052784;28;20442;-84
2021/03/20 12:48:42;;;;;;;1.40;1.30;;;10.50;52.00;;;;;;5051304;28;20169;-83
2021/03/20 12:51:22;;;;;;;2.20;1.93;;;10.70;51.60;;;;;;5031324;28;20415;-83
2021/03/20 12:53:47;;;;;;;1.43;1.33;;;10.70;51.10;;;;;;5021506;28;20446;-82
2021/03/20 12:56:13;;;;;;;2.20;2.00;;;10.70;51.10;;;;;;5019803;28;20436;-82
2021/03/20 12:58:38;;;;;;;2.00;1.50;;;11.10;50.60;;;;;;5039236;28;20203;-83
2021/03/20 13:01:04;;;;;;;1.60;1.37;;;11.70;49.70;;;;;;5051544;28;20187;-85
2021/03/20 13:03:34;;;;;;;1.87;1.70;;;11.70;48.20;;;;;;5037807;28;20187;-82
2021/03/20 13:06:00;;;;;;;1.53;1.13;;;11.30;48.00;;;;;;5021676;28;20203;-84
2021/03/20 13:08:26;;;;;;;1.73;1.50;;;11.70;48.30;;;;;;5037814;28;20409;-83
2021/03/20 13:10:52;;;;;;;3.17;1.50;;;11.90;48.20;;;;;;5038868;28;20175;-82
2021/03/20 13:13:18;;;;;;;1.77;1.67;;;12.20;48.60;;;;;;5033470;28;20816;-83
2021/03/20 13:15:44;;;;;;;1.90;1.80;;;12.80;46.70;;;;;;5025140;28;20922;-82
2021/03/20 13:18:10;;;;;;;1.67;1.50;;;13.20;45.70;;;;;;5019237;28;20466;-83
2021/03/20 13:20:36;;;;;;;2.20;2.00;;;13.30;46.10;;;;;;5024795;28;20291;-83
2021/03/20 13:23:02;;;;;;;2.50;1.87;;;13.40;44.80;;;;;;5025152;28;20467;-83
2021/03/20 13:25:34;;;;;;;1.67;1.37;;;13.50;47.30;;;;;;5031771;28;20225;-82
2021/03/20 13:28:01;;;;;;;2.27;1.90;;;13.70;45.40;;;;;;5018901;28;20539;-82
2021/03/20 13:30:29;;;;;;;1.93;1.77;;;13.70;45.90;;;;;;5039805;28;20422;-80
2021/03/20 13:32:56;;;;;;;2.03;1.93;;;14.00;46.80;;;;;;5040528;28;20490;-82
2021/03/20 13:35:26;;;;;;;2.77;1.80;;;14.30;47.10;;;;;;5036270;28;20518;-83
2021/03/20 13:37:52;;;;;;;2.80;2.10;;;14.20;44.50;;;;;;5029768;28;20449;-83